Terminal Aerodrome Forecast
Issued by NWS

Home | Current Version | Previous Version | Text Only | Print | Product List | Glossary On
Versions: 1 2 3 4 5 6 7 8 9 10 11 12 13 14 15 16 17
000
FTUS46 KLOX 040540
TAFOXR
TAF
KOXR 040540Z 0406/0506 27008KT P6SM BKN200
     FM040800 VRB03KT P6SM SCT200
     FM041900 28012KT P6SM SCT150
     FM050300 28008KT P6SM SCT150=

USA.gov is the U.S. government's official web portal to all federal, state and local government web resources and services.